createdAt,value
2022-09-12T00:02:03.379Z,4.45
2022-09-12T00:04:30.350Z,4.38
2022-09-12T00:06:57.231Z,5.00
2022-09-12T00:09:24.137Z,5.03
2022-09-12T00:11:51.054Z,4.38
2022-09-12T00:14:19.069Z,4.07
2022-09-12T00:16:46.418Z,4.35
2022-09-12T00:19:13.743Z,4.00
2022-09-12T00:21:41.786Z,4.50
2022-09-12T00:24:09.417Z,4.30
2022-09-12T00:26:36.535Z,5.05
2022-09-12T00:29:03.831Z,4.00
2022-09-12T00:31:30.781Z,4.22
2022-09-12T00:34:00.925Z,4.03
2022-09-12T00:36:30.388Z,4.28
2022-09-12T00:38:57.708Z,4.20
2022-09-12T00:41:31.381Z,4.35
2022-09-12T00:44:01.274Z,4.03
2022-09-12T00:46:46.634Z,3.65
2022-09-12T00:49:24.518Z,4.13
2022-09-12T00:52:12.665Z,3.78
2022-09-12T00:55:01.849Z,4.18
2022-09-12T00:57:35.951Z,4.25
2022-09-12T01:00:15.920Z,5.55
2022-09-12T01:02:51.529Z,3.85
2022-09-12T01:05:19.070Z,3.65
2022-09-12T01:07:48.642Z,5.45
2022-09-12T01:10:16.009Z,4.18
2022-09-12T01:12:43.651Z,3.42
2022-09-12T01:15:10.877Z,3.58
2022-09-12T01:18:09.965Z,6.35
2022-09-12T01:20:36.927Z,3.88
2022-09-12T01:23:12.950Z,3.85
2022-09-12T01:26:19.886Z,3.47
2022-09-12T01:28:56.953Z,3.22
2022-09-12T01:32:08.862Z,4.55
2022-09-12T01:34:43.169Z,3.28
2022-09-12T01:37:16.832Z,3.70
2022-09-12T01:39:48.803Z,3.58
2022-09-12T01:42:36.914Z,3.58
2022-09-12T01:45:10.229Z,3.50
2022-09-12T01:47:40.903Z,4.85
2022-09-12T01:50:13.011Z,3.40
2022-09-12T01:52:50.208Z,3.50
2022-09-12T01:55:24.993Z,3.42
2022-09-12T01:58:02.176Z,3.03
2022-09-12T02:00:30.234Z,3.55
2022-09-12T02:03:12.480Z,3.72
2022-09-12T02:05:49.010Z,6.55
2022-09-12T02:08:41.350Z,3.22
2022-09-12T02:11:10.855Z,3.58
2022-09-12T02:13:46.599Z,3.40
2022-09-12T02:16:31.572Z,3.45
2022-09-12T02:19:07.552Z,3.03
2022-09-12T02:21:37.311Z,3.53
2022-09-12T02:24:08.377Z,3.58
2022-09-12T02:26:56.829Z,3.40
2022-09-12T02:29:23.941Z,3.28
2022-09-12T02:31:58.746Z,4.38
2022-09-12T02:35:15.751Z,3.97
2022-09-12T02:38:07.556Z,3.30
2022-09-12T02:40:34.870Z,3.47
2022-09-12T02:43:04.234Z,4.38
2022-09-12T02:45:34.314Z,3.08
2022-09-12T02:48:13.503Z,2.60
2022-09-12T02:50:41.215Z,3.45
2022-09-12T02:53:09.303Z,3.70
2022-09-12T02:55:38.100Z,3.17
2022-09-12T02:58:10.271Z,3.20
2022-09-12T03:01:03.262Z,3.85
2022-09-12T03:03:54.477Z,3.00
2022-09-12T03:06:42.196Z,3.22
2022-09-12T03:09:24.587Z,3.03
2022-09-12T03:12:11.019Z,3.30
2022-09-12T03:14:52.351Z,2.85
2022-09-12T03:17:55.840Z,3.00
2022-09-12T03:20:37.463Z,3.20
2022-09-12T03:23:16.806Z,4.28
2022-09-12T03:25:59.094Z,3.25
2022-09-12T03:28:26.834Z,4.00
2022-09-12T03:30:56.534Z,3.58
2022-09-12T03:33:25.681Z,4.13
2022-09-12T03:35:53.467Z,3.55
2022-09-12T03:38:20.469Z,3.03
2022-09-12T03:40:54.554Z,4.00
2022-09-12T03:43:22.138Z,3.10
2022-09-12T03:45:53.554Z,2.85
2022-09-12T03:48:21.216Z,4.93
2022-09-12T03:50:48.091Z,3.10
2022-09-12T03:53:17.217Z,3.80
2022-09-12T03:55:44.502Z,3.60
2022-09-12T03:58:11.377Z,3.45
2022-09-12T04:00:39.244Z,3.45
2022-09-12T04:03:06.206Z,4.38
2022-09-12T04:05:33.070Z,3.25
2022-09-12T04:07:59.994Z,4.05
2022-09-12T04:10:26.848Z,3.60
2022-09-12T04:12:53.732Z,3.75
2022-09-12T04:15:20.646Z,2.83
2022-09-12T04:17:47.453Z,3.55
2022-09-12T04:20:14.775Z,3.05
2022-09-12T04:22:41.626Z,3.10
2022-09-12T04:25:09.585Z,3.40
2022-09-12T04:27:36.715Z,4.05
2022-09-12T04:30:05.800Z,3.58
2022-09-12T04:32:32.696Z,3.72
2022-09-12T04:34:59.693Z,5.20
2022-09-12T04:37:26.599Z,5.40
2022-09-12T04:39:57.835Z,2.80
2022-09-12T04:42:25.824Z,3.53
2022-09-12T04:44:52.713Z,4.82
2022-09-12T04:47:19.573Z,5.32
2022-09-12T04:49:46.636Z,3.55
2022-09-12T04:52:13.514Z,3.63
2022-09-12T04:54:40.351Z,4.57
2022-09-12T04:57:07.390Z,9.68
2022-09-12T04:59:34.411Z,4.63
2022-09-12T05:02:01.967Z,4.60
2022-09-12T05:04:28.910Z,5.07
2022-09-12T05:06:55.739Z,4.43
2022-09-12T05:09:22.714Z,5.85
2022-09-12T05:12:05.656Z,6.00
2022-09-12T05:14:34.065Z,6.82
2022-09-12T05:17:01.788Z,6.45
2022-09-12T05:19:30.510Z,5.50
2022-09-12T05:21:58.029Z,5.07
2022-09-12T05:24:25.261Z,5.97
2022-09-12T05:26:52.233Z,5.15
2022-09-12T05:29:19.936Z,5.25
2022-09-12T05:31:52.348Z,5.85
2022-09-12T05:34:20.133Z,7.00
2022-09-12T05:36:46.997Z,5.78
2022-09-12T05:39:13.881Z,5.53
2022-09-12T05:41:41.163Z,6.60
2022-09-12T05:44:12.296Z,6.70
2022-09-12T05:46:41.857Z,5.60
2022-09-12T05:49:11.382Z,9.07
2022-09-12T05:51:41.533Z,9.13
2022-09-12T05:54:12.031Z,5.72
2022-09-12T05:56:40.890Z,6.55
2022-09-12T05:59:13.318Z,6.55
2022-09-12T06:01:40.800Z,5.40
2022-09-12T06:04:08.225Z,5.25
2022-09-12T06:06:38.649Z,6.25
2022-09-12T06:09:06.214Z,11.45
2022-09-12T06:11:36.147Z,6.35
2022-09-12T06:14:04.017Z,6.20
2022-09-12T06:16:33.893Z,5.65
2022-09-12T06:19:04.713Z,5.43
2022-09-12T06:21:31.971Z,5.25
2022-09-12T06:23:59.218Z,6.78
2022-09-12T06:26:27.250Z,6.03
2022-09-12T06:28:56.092Z,8.38
2022-09-12T06:31:26.185Z,8.50
2022-09-12T06:33:54.341Z,8.02
2022-09-12T06:36:27.829Z,6.05
2022-09-12T06:38:57.228Z,5.82
2022-09-12T06:41:25.451Z,5.82
2022-09-12T06:43:53.195Z,6.63
2022-09-12T06:46:20.267Z,4.93
2022-09-12T06:48:47.258Z,4.50
2022-09-12T06:51:16.519Z,5.00
2022-09-12T06:53:45.197Z,6.22
2022-09-12T06:56:18.988Z,5.40
2022-09-12T06:58:47.338Z,3.90
2022-09-12T07:01:22.565Z,4.70
2022-09-12T07:03:52.344Z,4.57
2022-09-12T07:06:22.381Z,4.60
2022-09-12T07:08:49.741Z,4.35
2022-09-12T07:11:25.019Z,6.88
2022-09-12T07:13:54.136Z,5.15
2022-09-12T07:16:21.094Z,5.25
2022-09-12T07:18:57.415Z,5.13
2022-09-12T07:21:25.043Z,3.92
2022-09-12T07:23:52.085Z,4.07
2022-09-12T07:26:19.256Z,4.25
2022-09-12T07:28:50.519Z,5.57
2022-09-12T07:31:19.476Z,4.35
2022-09-12T07:33:49.009Z,4.20
2022-09-12T07:36:22.380Z,4.93
2022-09-12T07:38:57.194Z,5.30
2022-09-12T07:41:29.769Z,4.72
2022-09-12T07:43:59.008Z,4.15
2022-09-12T07:46:27.831Z,7.60
2022-09-12T07:48:57.127Z,5.25
2022-09-12T07:51:25.175Z,4.68
2022-09-12T07:53:52.184Z,7.50
2022-09-12T07:56:19.969Z,4.78
2022-09-12T07:58:47.183Z,6.05
2022-09-12T08:01:23.143Z,7.07
2022-09-12T08:03:53.860Z,4.97
2022-09-12T08:06:24.256Z,4.32
2022-09-12T08:08:52.873Z,4.30
2022-09-12T08:11:22.027Z,5.25
2022-09-12T08:13:55.750Z,4.00
2022-09-12T08:16:25.394Z,4.20
2022-09-12T08:18:52.470Z,5.38
2022-09-12T08:21:21.893Z,5.35
2022-09-12T08:23:56.299Z,3.35
2022-09-12T08:26:24.812Z,4.78
2022-09-12T08:28:51.974Z,3.47
2022-09-12T08:31:20.907Z,11.10
2022-09-12T08:33:48.376Z,6.20
2022-09-12T08:36:21.287Z,6.43
2022-09-12T08:38:50.577Z,3.85
2022-09-12T08:41:45.378Z,4.38
2022-09-12T08:44:22.240Z,7.18
2022-09-12T08:47:15.716Z,3.42
2022-09-12T08:50:00.784Z,3.45
2022-09-12T08:52:30.540Z,5.25
2022-09-12T08:54:57.594Z,3.83
2022-09-12T08:57:24.604Z,4.35
2022-09-12T08:59:53.035Z,4.75
2022-09-12T09:02:36.360Z,4.05
2022-09-12T09:05:41.209Z,6.68
2022-09-12T09:08:30.898Z,3.95
2022-09-12T09:11:16.315Z,3.50
2022-09-12T09:14:05.343Z,3.60
2022-09-12T09:16:39.838Z,3.05
2022-09-12T09:19:15.451Z,4.72
2022-09-12T09:21:50.986Z,5.00
2022-09-12T09:24:24.233Z,5.72
2022-09-12T09:27:03.234Z,5.22
2022-09-12T09:29:36.666Z,4.03
2022-09-12T09:32:10.321Z,3.70
2022-09-12T09:34:39.904Z,7.50
2022-09-12T09:37:36.417Z,8.95
2022-09-12T09:40:07.209Z,4.45
2022-09-12T09:42:53.994Z,3.95
2022-09-12T09:45:24.419Z,5.22
2022-09-12T09:48:31.348Z,4.15
2022-09-12T09:51:00.708Z,3.75
2022-09-12T09:53:32.332Z,3.55
2022-09-12T09:56:03.337Z,4.47
2022-09-12T09:58:32.283Z,3.65
2022-09-12T10:01:01.044Z,3.85
2022-09-12T10:03:32.517Z,3.22
2022-09-12T10:06:19.273Z,4.40
2022-09-12T10:08:47.507Z,2.97
2022-09-12T10:11:23.222Z,2.88
2022-09-12T10:13:58.125Z,3.45
2022-09-12T10:16:28.016Z,3.17
2022-09-12T10:19:01.541Z,3.15
2022-09-12T10:21:43.273Z,2.42
2022-09-12T10:24:28.290Z,3.58
2022-09-12T10:26:58.584Z,2.83
2022-09-12T10:29:28.885Z,2.13
2022-09-12T10:31:58.857Z,3.80
2022-09-12T10:34:34.580Z,2.45
2022-09-12T10:37:05.667Z,2.45
2022-09-12T10:39:34.451Z,2.58
2022-09-12T10:42:02.039Z,2.85
2022-09-12T10:44:31.117Z,3.88
2022-09-12T10:46:59.743Z,3.83
2022-09-12T10:49:31.017Z,3.40
2022-09-12T10:52:23.381Z,2.58
2022-09-12T10:54:54.415Z,4.78
2022-09-12T10:57:57.373Z,3.78
2022-09-12T11:00:28.071Z,3.22
2022-09-12T11:03:05.305Z,2.70
2022-09-12T11:05:56.364Z,2.55
2022-09-12T11:09:06.273Z,4.15
2022-09-12T11:12:08.792Z,2.95
2022-09-12T11:14:52.627Z,4.07
2022-09-12T11:17:45.120Z,2.17
2022-09-12T11:20:27.094Z,2.53
2022-09-12T11:23:09.843Z,2.55
2022-09-12T11:25:52.428Z,2.20
2022-09-12T11:28:36.672Z,2.15
2022-09-12T11:31:41.108Z,3.00
2022-09-12T11:34:16.719Z,4.57
2022-09-12T11:37:10.671Z,27.92
2022-09-12T11:39:44.711Z,15.70
2022-09-12T11:42:23.976Z,15.85
2022-09-12T11:45:19.905Z,16.02
2022-09-12T11:47:50.254Z,7.53
2022-09-12T11:50:27.232Z,10.73
2022-09-12T11:52:58.834Z,10.65
2022-09-12T11:55:29.899Z,8.88
2022-09-12T11:58:00.946Z,6.60
2022-09-12T12:00:44.147Z,11.20
2022-09-12T12:03:39.532Z,9.70
2022-09-12T12:06:19.597Z,8.23
2022-09-12T12:08:50.682Z,5.93
2022-09-12T12:11:38.797Z,6.03
2022-09-12T12:14:45.485Z,9.32
2022-09-12T12:17:18.206Z,4.20
2022-09-12T12:19:47.333Z,6.22
2022-09-12T12:22:21.985Z,6.20
2022-09-12T12:25:29.597Z,2.75
2022-09-12T12:28:01.428Z,8.60
2022-09-12T12:30:31.168Z,6.50
2022-09-12T12:33:13.297Z,4.82
2022-09-12T12:35:46.783Z,3.60
2022-09-12T12:38:32.752Z,5.75
2022-09-12T12:41:17.351Z,4.10
2022-09-12T12:43:49.138Z,4.75
2022-09-12T12:46:21.008Z,3.20
2022-09-12T12:49:09.673Z,5.63
2022-09-12T12:51:56.744Z,4.07
2022-09-12T12:54:47.900Z,5.38
2022-09-12T12:57:23.507Z,4.20
2022-09-12T12:59:55.524Z,2.88
2022-09-12T13:02:41.150Z,4.80
2022-09-12T13:05:20.125Z,3.88
2022-09-12T13:07:48.266Z,3.63
2022-09-12T13:10:28.928Z,2.92
2022-09-12T13:13:03.908Z,4.28
2022-09-12T13:15:36.834Z,3.53
2022-09-12T13:18:12.330Z,6.38
2022-09-12T13:21:09.342Z,3.28
2022-09-12T13:23:36.482Z,3.92
2022-09-12T13:26:10.148Z,3.45
2022-09-12T13:28:37.067Z,3.03
2022-09-12T13:31:13.063Z,5.85
2022-09-12T13:33:51.012Z,1.70
2022-09-12T13:36:39.274Z,3.17
2022-09-12T13:39:17.698Z,3.97
2022-09-12T13:41:56.706Z,2.22
2022-09-12T13:44:24.943Z,2.22
2022-09-12T13:46:52.941Z,2.78
2022-09-12T13:49:35.005Z,5.22
2022-09-12T13:52:05.295Z,2.78
2022-09-12T13:54:34.173Z,2.22
2022-09-12T13:57:01.689Z,2.42
2022-09-12T13:59:28.662Z,3.88
2022-09-12T14:01:55.809Z,2.83
2022-09-12T14:04:43.376Z,2.03
2022-09-12T14:07:15.344Z,1.92
2022-09-12T14:09:45.152Z,1.85
2022-09-12T14:12:40.215Z,2.50
2022-09-12T14:15:16.076Z,2.08
2022-09-12T14:17:52.083Z,2.15
2022-09-12T14:20:23.285Z,2.42
2022-09-12T14:22:52.528Z,1.90
2022-09-12T14:25:25.487Z,2.10
2022-09-12T14:27:54.768Z,2.22
2022-09-12T14:30:25.999Z,3.05
2022-09-12T14:33:11.316Z,1.83
2022-09-12T14:35:46.380Z,1.35
2022-09-12T14:38:18.192Z,1.73
2022-09-12T14:40:51.753Z,1.70
2022-09-12T14:43:25.203Z,2.05
2022-09-12T14:46:03.690Z,2.20
2022-09-12T14:48:34.695Z,1.77
2022-09-12T14:51:01.631Z,1.75
2022-09-12T14:53:34.910Z,1.50
2022-09-12T14:56:14.113Z,1.50
2022-09-12T14:58:41.764Z,1.60
2022-09-12T15:01:08.603Z,2.17
2022-09-12T15:03:48.708Z,1.75
2022-09-12T15:06:30.499Z,1.45
2022-09-12T15:09:02.175Z,2.35
2022-09-12T15:11:29.202Z,1.38
2022-09-12T15:13:56.091Z,1.75
2022-09-12T15:16:23.146Z,1.50
2022-09-12T15:18:50.047Z,2.65
2022-09-12T15:21:20.243Z,2.40
2022-09-12T15:23:51.614Z,1.40
2022-09-12T15:26:22.155Z,3.50
2022-09-12T15:28:50.102Z,2.28
2022-09-12T15:31:28.450Z,1.17
2022-09-12T15:33:57.271Z,5.93
2022-09-12T15:36:24.937Z,1.83
2022-09-12T15:38:52.477Z,5.40
2022-09-12T15:41:38.937Z,1.98
2022-09-12T15:44:08.255Z,2.05
2022-09-12T15:46:35.225Z,2.13
2022-09-12T15:49:02.320Z,2.25
2022-09-12T15:51:29.257Z,1.85
2022-09-12T15:53:56.149Z,2.90
2022-09-12T15:56:23.162Z,1.65
2022-09-12T15:58:58.721Z,1.73
2022-09-12T16:01:28.230Z,1.75
2022-09-12T16:03:55.282Z,1.30
2022-09-12T16:06:22.369Z,1.73
2022-09-12T16:08:49.310Z,2.28
2022-09-12T16:11:22.484Z,3.70
2022-09-12T16:13:49.754Z,3.03
2022-09-12T16:16:16.780Z,4.57
2022-09-12T16:18:43.823Z,3.88
2022-09-12T16:21:14.950Z,1.75
2022-09-12T16:23:43.641Z,1.58
2022-09-12T16:26:11.004Z,2.45
2022-09-12T16:28:38.097Z,3.60
2022-09-12T16:31:07.473Z,2.47
2022-09-12T16:33:34.588Z,1.67
2022-09-12T16:36:03.904Z,2.03
2022-09-12T16:38:31.383Z,2.13
2022-09-12T16:41:02.601Z,3.40
2022-09-12T16:43:30.676Z,2.15
2022-09-12T16:46:12.503Z,2.20
2022-09-12T16:48:52.532Z,2.65
2022-09-12T16:51:22.029Z,2.33
2022-09-12T16:53:49.640Z,2.25
2022-09-12T16:56:17.036Z,5.38
2022-09-12T16:58:44.294Z,4.78
2022-09-12T17:01:20.254Z,2.72
2022-09-12T17:03:47.492Z,2.10
2022-09-12T17:06:16.996Z,3.35
2022-09-12T17:08:47.500Z,2.83
2022-09-12T17:11:18.499Z,4.78
2022-09-12T17:14:06.535Z,2.00
2022-09-12T17:16:36.013Z,2.53
2022-09-12T17:19:03.675Z,4.43
2022-09-12T17:21:30.567Z,4.43
2022-09-12T17:23:57.495Z,5.03
2022-09-12T17:26:24.897Z,5.45
2022-09-12T17:28:52.939Z,3.75
2022-09-12T17:31:20.148Z,4.35
2022-09-12T17:33:47.332Z,3.95
2022-09-12T17:36:16.627Z,4.10
2022-09-12T17:38:45.853Z,2.75
2022-09-12T17:41:17.814Z,2.22
2022-09-12T17:43:46.524Z,2.47
2022-09-12T17:46:14.144Z,2.60
2022-09-12T17:48:41.715Z,2.30
2022-09-12T17:51:10.159Z,5.55
2022-09-12T17:53:37.497Z,3.88
2022-09-12T17:56:05.599Z,3.50
2022-09-12T17:58:33.664Z,3.65
2022-09-12T18:01:23.462Z,4.05
2022-09-12T18:03:53.191Z,2.05
2022-09-12T18:06:20.056Z,3.47
2022-09-12T18:08:46.968Z,2.28
2022-09-12T18:11:13.884Z,4.90
2022-09-12T18:13:40.918Z,5.20
2022-09-12T18:16:10.215Z,6.68
2022-09-12T18:18:37.576Z,6.30
2022-09-12T18:21:05.975Z,2.80
2022-09-12T18:23:33.229Z,5.53
2022-09-12T18:26:02.063Z,4.63
2022-09-12T18:28:29.494Z,4.80
2022-09-12T18:30:56.615Z,2.92
2022-09-12T18:33:24.295Z,6.50
2022-09-12T18:35:51.754Z,7.95
2022-09-12T18:38:19.005Z,3.13
2022-09-12T18:40:46.082Z,2.53
2022-09-12T18:43:14.460Z,6.18
2022-09-12T18:45:41.550Z,5.95
2022-09-12T18:48:09.478Z,6.00
2022-09-12T18:50:36.473Z,4.03
2022-09-12T18:53:03.477Z,4.93
2022-09-12T18:55:32.460Z,3.42
2022-09-12T18:57:59.340Z,6.25
2022-09-12T19:00:26.870Z,4.85
2022-09-12T19:02:53.989Z,6.07
2022-09-12T19:05:20.881Z,6.60
2022-09-12T19:07:47.960Z,2.75
2022-09-12T19:10:20.274Z,3.30
2022-09-12T19:12:47.512Z,5.03
2022-09-12T19:15:17.367Z,6.18
2022-09-12T19:17:44.963Z,4.30
2022-09-12T19:20:11.882Z,4.22
2022-09-12T19:22:38.765Z,6.70
2022-09-12T19:25:06.095Z,4.28
2022-09-12T19:27:33.020Z,4.25
2022-09-12T19:30:02.690Z,2.83
2022-09-12T19:32:29.583Z,5.13
2022-09-12T19:34:56.556Z,3.67
2022-09-12T19:37:23.643Z,5.55
2022-09-12T19:39:54.217Z,6.45
2022-09-12T19:42:21.477Z,5.82
2022-09-12T19:44:48.384Z,7.85
2022-09-12T19:47:15.324Z,4.43
2022-09-12T19:49:42.232Z,5.70
2022-09-12T19:52:09.067Z,4.32
2022-09-12T19:54:36.099Z,4.85
2022-09-12T19:57:03.235Z,4.70
2022-09-12T19:59:30.109Z,4.47
2022-09-12T20:01:57.067Z,5.50
2022-09-12T20:04:24.324Z,6.07
2022-09-12T20:06:51.157Z,10.55
2022-09-12T20:09:18.061Z,13.10
2022-09-12T20:11:44.982Z,7.38
2022-09-12T20:14:11.914Z,8.13
2022-09-12T20:16:38.863Z,5.05
2022-09-12T20:19:08.458Z,4.70
2022-09-12T20:21:36.455Z,6.72
2022-09-12T20:24:10.169Z,5.03
2022-09-12T20:26:37.392Z,6.18
2022-09-12T20:29:06.066Z,5.75
2022-09-12T20:31:33.744Z,7.22
2022-09-12T20:34:00.814Z,7.28
2022-09-12T20:36:28.048Z,5.30
2022-09-12T20:39:00.114Z,3.55
2022-09-12T20:41:29.397Z,4.63
2022-09-12T20:43:57.125Z,5.88
2022-09-12T20:46:26.004Z,4.90
2022-09-12T20:48:53.533Z,4.60
2022-09-12T20:51:22.865Z,6.32
2022-09-12T20:53:54.170Z,4.38
2022-09-12T20:56:22.023Z,9.10
2022-09-12T20:58:51.597Z,4.90
2022-09-12T21:01:18.564Z,4.07
2022-09-12T21:03:46.141Z,4.72
2022-09-12T21:06:17.005Z,4.50
2022-09-12T21:08:45.505Z,6.30
2022-09-12T21:11:12.979Z,6.30
2022-09-12T21:13:39.855Z,29.55
2022-09-12T21:16:09.222Z,24.92
2022-09-12T21:18:36.883Z,16.70
2022-09-12T21:21:05.645Z,10.90
2022-09-12T21:23:33.587Z,8.52
2022-09-12T21:26:01.773Z,8.93
2022-09-12T21:28:28.845Z,8.30
2022-09-12T21:30:56.154Z,11.00
2022-09-12T21:33:23.946Z,9.63
2022-09-12T21:35:51.263Z,8.35
2022-09-12T21:38:24.700Z,7.80
2022-09-12T21:40:52.243Z,6.32
2022-09-12T21:43:19.082Z,8.15
2022-09-12T21:45:45.908Z,7.22
2022-09-12T21:48:12.967Z,6.80
2022-09-12T21:50:40.162Z,6.43
2022-09-12T21:53:07.644Z,6.55
2022-09-12T21:55:34.494Z,8.00
2022-09-12T21:58:01.385Z,4.93
2022-09-12T22:00:28.296Z,5.97
2022-09-12T22:02:55.768Z,4.95
2022-09-12T22:05:24.611Z,6.40
2022-09-12T22:07:52.565Z,6.25
2022-09-12T22:10:19.459Z,9.60
2022-09-12T22:12:46.643Z,7.75
2022-09-12T22:15:39.026Z,6.57
2022-09-12T22:18:00.997Z,3.83
2022-09-12T22:20:27.959Z,4.20
2022-09-12T22:23:13.512Z,6.97
2022-09-12T22:25:40.782Z,4.55
2022-09-12T22:28:07.656Z,4.63
2022-09-12T22:30:34.697Z,6.90
2022-09-12T22:33:01.590Z,6.38
2022-09-12T22:35:28.555Z,5.18
2022-09-12T22:37:55.445Z,4.47
2022-09-12T22:40:22.408Z,3.03
2022-09-12T22:42:52.566Z,3.40
2022-09-12T22:45:19.975Z,5.30
2022-09-12T22:47:46.868Z,5.40
2022-09-12T22:50:13.912Z,6.53
2022-09-12T22:52:41.622Z,3.08
2022-09-12T22:55:09.728Z,4.03
2022-09-12T22:57:37.457Z,3.60
2022-09-12T23:00:08.674Z,6.53
2022-09-12T23:02:35.547Z,6.68
2022-09-12T23:05:02.890Z,4.90
2022-09-12T23:07:29.774Z,3.08
2022-09-12T23:09:56.918Z,2.65
2022-09-12T23:12:23.955Z,3.78
2022-09-12T23:14:50.796Z,2.30
2022-09-12T23:17:17.648Z,2.72
2022-09-12T23:19:44.650Z,2.67
2022-09-12T23:22:11.511Z,4.70
2022-09-12T23:24:38.553Z,2.60
2022-09-12T23:27:06.002Z,2.45
2022-09-12T23:29:35.294Z,4.20
2022-09-12T23:32:03.406Z,7.53
2022-09-12T23:34:30.965Z,2.75
2022-09-12T23:36:57.901Z,5.82
2022-09-12T23:39:24.753Z,3.38
2022-09-12T23:41:52.168Z,3.03
2022-09-12T23:44:19.054Z,2.30
2022-09-12T23:46:45.875Z,2.42
2022-09-12T23:49:12.826Z,2.33
2022-09-12T23:51:39.731Z,2.30
2022-09-12T23:54:06.661Z,2.38
2022-09-12T23:56:33.498Z,2.40
2022-09-12T23:59:00.472Z,2.67
